• Join FlightAware (Why Join?)
  • Login
  • US Flag 
03:16PM EDT


 

Airport Tracker/Info


-or-


 

Live Flight TrackerFlight Track Log ✈ JBU56 ✈ 14-Jul-2013 ✈ KIAD - KBOS

Flight Track Log - Related Links

Times and Time Zones

All times are in EDT time to prevent confusion due to time zone crossing. See the JBU56 flight status page for this flight to view local times or setup timezone preferences in your user account.

Time Position Orientation Groundspeed Altitude Reporting Facility
EDT Latitude Longitude Course Direction KTS MPH feet Rate Location/Type
09:06AM 38.9500 -77.5167 90° East 174 200 1,700  Level Potomac TRACON
09:07AM 39.0000 -77.5333 345° North 226 260 3,100 2,100 Climbing Potomac TRACON
09:08AM 39.0667 -77.5000 21° North 273 314 5,500 3,000 Climbing Potomac TRACON
09:09AM 39.1333 -77.4500 30° Northeast 294 338 8,800 2,160 Climbing Potomac TRACON
09:10AM 39.1500 -76.1885 90° East  Level FlightAware Approximate
09:11AM 39.1500 -76.1003 90° East  Level FlightAware Approximate
09:11AM 39.1578 -77.2833 79° East 247 284 12,100  Level Washington Center
09:12AM 39.1300 -77.1811 109° East 273 314 14,600 2,400 Climbing Washington Center
09:13AM 39.0917 -77.0786 116° Southeast 284 327 17,000 2,040 Climbing Washington Center
09:14AM 39.0344 -76.9864 129° Southeast 307 353 18,800 960 Climbing Washington Center
09:15AM 39.0108 -76.8658 104° East 328 377 19,000 180 Climbing Washington Center
09:16AM 39.0414 -76.7300 74° East 338 389 19,200 720 Climbing Washington Center
09:17AM 39.0719 -76.5861 75° East 379 436 20,500 1,320 Climbing Washington Center
09:18AM 39.1064 -76.4369 73° East 407 468 21,900 1,560 Climbing Washington Center
09:19AM 39.1364 -76.2875 75° East 419 482 23,600 1,500 Climbing Washington Center
09:20AM 39.1644 -76.1350 77° East 426 490 24,900 1,140 Climbing Washington Center
09:21AM 39.1817 -75.9772 82° East 438 504 25,900 960 Climbing Washington Center
09:22AM 39.2278 -75.8300 68° East 438 504 26,900 1,020 Climbing Washington Center
09:23AM 39.3197 -75.7122 45° Northeast 431 496 28,000 960 Climbing Washington Center
09:24AM 39.4114 -75.5997 43° Northeast 443 510 28,800 900 Climbing Washington Center
09:26AM 39.5728 -75.3900 45° Northeast 449 517 30,600 780 Climbing New York Center
09:27AM 39.6628 -75.2717 45° Northeast 459 528 31,000 180 Climbing New York Center
09:28AM 39.7578 -75.1292 49° Northeast 464 534 31,000  Level New York Center
09:29AM 39.8436 -75.0075 47° Northeast 469 540 31,000  Level New York Center
09:30AM 39.9314 -74.8856 47° Northeast 464 534 31,000  Level New York Center
09:31AM 40.0081 -74.7736 48° Northeast 459 528 31,000  Level New York Center
09:32AM 40.1022 -74.6378 48° Northeast 454 522 31,000  Level New York Center
09:33AM 40.1789 -74.5281 48° Northeast 454 522 31,000  Level New York Center
09:34AM 40.2708 -74.3836 50° Northeast 460 529 31,000 -300 Level New York Center
09:35AM 40.3517 -74.2569 50° Northeast 460 529 30,500 -1,200 Descending New York Center
09:37AM 40.5075 -74.0150 50° Northeast 458 527 27,500 -1,560 Descending Boston Center
09:38AM 40.5864 -73.8858 51° Northeast 453 521 26,000 -1,500 Descending Boston Center
09:39AM 40.6714 -73.7481 51° Northeast 447 514 24,500 -960 Descending Boston Center
09:40AM 40.7628 -73.5964 51° Northeast 441 507 24,000 -240 Descending Boston Center
09:41AM 40.8369 -73.4661 53° Northeast 441 507 24,000  Level Boston Center
09:42AM 40.9192 -73.3439 48° Northeast 441 507 24,000  Level Boston Center
09:43AM 40.9972 -73.2267 49° Northeast 429 494 24,000 -300 Level Boston Center
09:44AM 41.0647 -73.0897 57° Northeast 429 494 23,500 -540 Descending Boston Center
09:45AM 41.1300 -72.9528 58° Northeast 434 499 23,000 -300 Descending Boston Center
09:46AM 41.1889 -72.8261 58° Northeast 426 490 23,000 -420 Level Boston Center
09:47AM 41.2475 -72.6969 59° Northeast 412 474 22,200 -1,020 Descending Boston Center
09:48AM 41.3019 -72.5589 62° Northeast 412 474 21,000 -720 Descending Boston Center
09:49AM 41.3542 -72.4264 62° Northeast 412 474 20,800 -780 Descending Boston Center
09:50AM 41.4000 -72.3156 61° Northeast 407 468 19,500 -900 Descending Boston Center
09:51AM 41.4581 -72.1658 63° Northeast 408 470 19,000 -300 Descending Boston Center
09:52AM 41.5158 -72.0186 62° Northeast 408 470 19,000  Level Boston Center
09:53AM 41.5675 -71.8797 64° Northeast 408 470 19,000 -300 Level Boston Center
09:54AM 41.6189 -71.7458 63° Northeast 408 470 18,500 -1,140 Descending Boston Center
09:55AM 41.6700 -71.6092 63° Northeast 402 463 16,800 -1,620 Descending Boston Center
09:56AM 41.7108 -71.4975 64° Northeast 410 472 15,400 -1,860 Descending Boston Center
09:57AM 41.7719 -71.3433 62° Northeast 396 456 13,100 -2,100 Descending Boston Center
09:58AM 41.8144 -71.2283 64° Northeast 383 441 11,300 -1,020 Descending Boston Center
09:59AM 41.8672 -71.0992 61° Northeast 366 421 11,100 -120 Descending Boston Center
10:00AM 41.9078 -71.0006 61° Northeast 346 398 11,100 -420 Level Boston Center
10:02AM 42.0333 -70.7333 58° Northeast 312 359 9,700 -780 Descending KA90
10:03AM 42.0833 -70.6500 51° Northeast 302 348 8,500 -1,140 Descending KA90
10:04AM 42.1500 -70.6000 29° Northeast 280 322 7,500 -1,200 Descending KA90
10:05AM 42.2167 -70.6000 360° North 268 308 6,100 -1,500 Descending KA90
10:06AM 42.3000 -70.6333 344° North 256 295 4,400 -1,500 Descending KA90
10:07AM 42.3667 -70.6667 340° North 256 295 3,000 -780 Descending KA90
10:08AM 42.4000 -70.7333 304° West 250 288 3,000 -360 Level KA90
10:09AM 42.3833 -70.8167 255° West 210 242 2,400 -780 Descending KA90
10:10AM 42.3833 -70.8833 270° West 188 216 1,500 -900 Descending KA90
10:11AM 42.3667 -70.9333 246° West 145 167 800 -720 Descending KA90
10:12AM 42.3667 -70.9833 270° West 133 153 200 -600 Descending KA90